createdAt,value
2018-02-18T06:18:25.637Z,38.77
2018-02-18T06:20:57.523Z,44.77
2018-02-18T06:23:30.175Z,46.63
2018-02-18T06:26:02.059Z,38.47
2018-02-18T06:28:34.707Z,43.90
2018-02-18T06:31:06.595Z,49.23
2018-02-18T06:33:39.231Z,44.33
2018-02-18T06:36:11.115Z,39.33
2018-02-18T06:38:43.322Z,39.97
2018-02-18T06:41:15.212Z,41.43
2018-02-18T06:43:47.079Z,43.37
2018-02-18T06:46:18.975Z,39.93
2018-02-18T06:48:51.619Z,45.37
2018-02-18T06:51:23.507Z,47.10
2018-02-18T06:53:55.702Z,45.53
2018-02-18T06:56:27.871Z,46.27
2018-02-18T06:58:59.742Z,40.27
2018-02-18T07:01:31.636Z,45.47
2018-02-18T07:04:03.543Z,41.90
2018-02-18T07:06:36.203Z,45.50
2018-02-18T07:09:08.079Z,45.93
2018-02-18T07:11:41.083Z,38.77
2018-02-18T07:14:13.512Z,42.63
2018-02-18T07:16:45.399Z,40.87
2018-02-18T07:19:17.287Z,42.10
2018-02-18T07:21:49.431Z,41.63
2018-02-18T07:24:21.314Z,45.03
2018-02-18T07:26:53.206Z,43.37
2018-02-18T07:29:25.319Z,44.33
2018-02-18T07:31:57.487Z,43.10
2018-02-18T07:34:29.651Z,40.87
2018-02-18T07:37:01.567Z,38.07
2018-02-18T07:39:33.438Z,48.47
2018-02-18T07:42:05.331Z,44.47
2018-02-18T07:44:37.202Z,40.70
2018-02-18T07:47:09.359Z,41.00
2018-02-18T07:49:41.223Z,35.43
2018-02-18T07:52:13.392Z,38.97
2018-02-18T07:54:45.551Z,39.87
2018-02-18T07:57:17.437Z,44.92
2018-02-18T07:59:49.308Z,37.67
2018-02-18T08:02:21.435Z,46.50
2018-02-18T08:04:53.339Z,39.93
2018-02-18T08:07:25.237Z,39.20
2018-02-18T08:09:57.875Z,41.10
2018-02-18T08:12:29.758Z,42.33
2018-02-18T08:15:01.963Z,41.17
2018-02-18T08:17:33.851Z,40.73
2018-02-18T08:20:05.988Z,41.40
2018-02-18T08:22:37.872Z,40.13
2018-02-18T08:25:09.738Z,40.20
2018-02-18T08:27:41.656Z,43.23
2018-02-18T08:30:14.298Z,41.87
2018-02-18T08:32:46.179Z,46.60
2018-02-18T08:35:18.065Z,41.90
2018-02-18T08:37:49.950Z,43.57
2018-02-18T08:40:21.828Z,43.90
2018-02-18T08:42:53.746Z,44.83
2018-02-18T08:45:26.375Z,40.00
2018-02-18T08:47:58.264Z,41.87
2018-02-18T08:50:30.955Z,40.80
2018-02-18T08:53:02.804Z,45.43
2018-02-18T08:55:35.439Z,44.33
2018-02-18T08:58:07.328Z,41.47
2018-02-18T09:00:39.201Z,44.27
2018-02-18T09:03:12.109Z,42.53
2018-02-18T09:05:43.988Z,40.70
2018-02-18T09:08:15.875Z,45.33
2018-02-18T09:10:47.991Z,41.93
2018-02-18T09:13:19.880Z,45.97
2018-02-18T09:15:51.754Z,49.93
2018-02-18T09:18:23.675Z,41.50
2018-02-18T09:20:55.844Z,44.87
2018-02-18T09:23:27.952Z,44.43
2018-02-18T09:25:59.847Z,41.90
2018-02-18T09:28:32.486Z,40.87
2018-02-18T09:31:04.363Z,41.33
2018-02-18T09:33:36.261Z,43.93
2018-02-18T09:36:08.136Z,39.77
2018-02-18T09:38:40.023Z,40.77
2018-02-18T09:41:11.900Z,40.80
2018-02-18T09:43:43.788Z,41.67
2018-02-18T09:46:16.423Z,43.60
2018-02-18T09:48:48.306Z,40.07
2018-02-18T09:51:20.186Z,43.33
2018-02-18T09:53:52.831Z,36.53
2018-02-18T09:56:24.727Z,41.57
2018-02-18T09:58:57.623Z,40.33
2018-02-18T10:01:29.496Z,39.83
2018-02-18T10:04:01.458Z,41.87
2018-02-18T10:06:33.614Z,35.67
2018-02-18T10:09:05.508Z,35.70
2018-02-18T10:11:37.384Z,39.63
2018-02-18T10:14:09.503Z,40.30
2018-02-18T10:16:41.372Z,44.17
2018-02-18T10:19:13.259Z,44.90
2018-02-18T10:21:45.140Z,35.87
2018-02-18T10:24:17.856Z,38.17
2018-02-18T10:26:49.739Z,40.77
2018-02-18T10:29:21.654Z,38.37
2018-02-18T10:31:53.909Z,38.67
2018-02-18T10:34:25.747Z,34.30
2018-02-18T10:36:57.623Z,41.37
2018-02-18T10:39:29.863Z,34.47
2018-02-18T10:42:01.739Z,40.57
2018-02-18T10:44:33.656Z,36.87
2018-02-18T10:47:05.519Z,42.63
2018-02-18T10:49:37.679Z,39.50
2018-02-18T10:52:09.551Z,34.27
2018-02-18T10:54:41.446Z,37.57
2018-02-18T10:57:13.330Z,41.63
2018-02-18T10:59:45.223Z,38.30
2018-02-18T11:02:17.808Z,38.87
2018-02-18T11:04:49.691Z,43.50
2018-02-18T11:07:21.564Z,38.80
2018-02-18T11:09:53.457Z,36.37
2018-02-18T11:12:25.327Z,36.97
2018-02-18T11:14:57.971Z,35.10
2018-02-18T11:17:29.848Z,38.00
2018-02-18T11:20:01.727Z,33.93
2018-02-18T11:22:34.623Z,33.10
2018-02-18T11:25:06.511Z,39.60
2018-02-18T11:27:38.387Z,33.47
2018-02-18T11:30:10.296Z,36.80
2018-02-18T11:32:43.183Z,35.97
2018-02-18T11:35:15.079Z,34.47
2018-02-18T11:37:47.020Z,37.10
2018-02-18T11:40:18.971Z,38.57
2018-02-18T11:42:50.844Z,39.67
2018-02-18T11:45:22.771Z,33.13
2018-02-18T11:47:55.411Z,32.83
2018-02-18T11:50:27.296Z,27.90
2018-02-18T11:52:59.203Z,28.17
2018-02-18T11:55:31.097Z,32.40
2018-02-18T11:58:02.976Z,28.53
2018-02-18T12:00:34.911Z,29.37
2018-02-18T12:03:06.792Z,31.07
2018-02-18T12:05:38.685Z,29.87
2018-02-18T12:08:10.571Z,30.33
2018-02-18T12:10:42.463Z,24.83
2018-02-18T12:13:14.335Z,30.50
2018-02-18T12:15:46.207Z,22.50
2018-02-18T12:18:18.851Z,25.47
2018-02-18T12:20:51.071Z,24.80
2018-02-18T12:23:22.956Z,25.20
2018-02-18T12:25:55.099Z,23.37
2018-02-18T12:28:26.984Z,24.83
2018-02-18T12:30:59.124Z,21.50
2018-02-18T12:33:30.997Z,23.23
2018-02-18T12:36:02.892Z,22.43
2018-02-18T12:38:34.759Z,21.97
2018-02-18T12:41:06.651Z,21.87
2018-02-18T12:43:39.550Z,18.50
2018-02-18T12:46:11.451Z,24.00
2018-02-18T12:48:43.324Z,24.03
2018-02-18T12:51:15.224Z,23.13
2018-02-18T12:53:48.111Z,21.63
2018-02-18T12:56:20.005Z,19.17
2018-02-18T12:58:51.879Z,18.23
2018-02-18T13:01:23.779Z,19.63
2018-02-18T13:03:56.420Z,20.33
2018-02-18T13:06:28.535Z,18.23
2018-02-18T13:09:00.711Z,22.23
2018-02-18T13:11:32.600Z,25.03
2018-02-18T13:14:06.240Z,23.50
2018-02-18T13:16:38.899Z,17.57
2018-02-18T13:19:11.013Z,21.50
2018-02-18T13:21:43.178Z,19.60
2018-02-18T13:24:15.048Z,23.97
2018-02-18T13:26:46.948Z,21.40
2018-02-18T13:29:18.828Z,21.47
2018-02-18T13:31:51.058Z,21.07
2018-02-18T13:34:22.932Z,21.90
2018-02-18T13:36:54.815Z,19.13
2018-02-18T13:39:26.687Z,17.37
2018-02-18T13:41:59.343Z,17.47
2018-02-18T13:44:31.234Z,18.20
2018-02-18T13:47:03.922Z,18.20
2018-02-18T13:49:35.799Z,21.23
2018-02-18T13:52:07.688Z,30.37
2018-02-18T13:54:39.572Z,20.03
2018-02-18T13:57:11.462Z,20.53
2018-02-18T13:59:44.094Z,20.37
2018-02-18T14:02:16.004Z,17.87
2018-02-18T14:04:48.186Z,18.40
2018-02-18T14:07:20.060Z,18.33
2018-02-18T14:09:51.931Z,23.67
2018-02-18T14:12:23.839Z,20.20
2018-02-18T14:14:56.479Z,19.57
2018-02-18T14:17:28.369Z,22.50
2018-02-18T14:20:01.006Z,15.93
2018-02-18T14:22:32.898Z,19.00
2018-02-18T14:25:05.539Z,18.63
2018-02-18T14:27:37.427Z,16.67
2018-02-18T14:30:09.300Z,22.17
2018-02-18T14:32:41.959Z,20.33
2018-02-18T14:35:13.840Z,18.63
2018-02-18T14:37:46.495Z,20.63
2018-02-18T14:40:18.362Z,15.57
2018-02-18T14:43:02.223Z,17.27
2018-02-18T14:45:46.881Z,17.37
2018-02-18T14:48:31.560Z,19.57
2018-02-18T14:51:16.174Z,18.17
2018-02-18T14:53:59.983Z,17.23
2018-02-18T14:56:43.639Z,20.17
2018-02-18T14:59:15.863Z,19.23
2018-02-18T15:01:47.727Z,20.57
2018-02-18T15:04:19.608Z,19.70
2018-02-18T15:06:51.483Z,18.70
2018-02-18T15:09:23.612Z,18.40
2018-02-18T15:11:55.493Z,22.87
2018-02-18T15:14:27.391Z,24.07
2018-02-18T15:16:59.263Z,20.70
2018-02-18T15:19:31.921Z,22.50
2018-02-18T15:22:03.795Z,18.73
2018-02-18T15:24:35.683Z,19.17
2018-02-18T15:27:07.852Z,23.40
2018-02-18T15:29:39.740Z,19.23
2018-02-18T15:32:11.646Z,19.37
2018-02-18T15:34:44.562Z,17.77
2018-02-18T15:37:16.723Z,17.73
2018-02-18T15:39:48.616Z,17.97
2018-02-18T15:42:20.492Z,16.00
2018-02-18T15:44:52.380Z,14.73
2018-02-18T15:47:25.017Z,17.03
2018-02-18T15:49:56.901Z,21.57
2018-02-18T15:52:28.780Z,23.20
2018-02-18T15:55:00.667Z,19.43
2018-02-18T15:57:32.552Z,17.03
2018-02-18T16:00:04.440Z,25.70
2018-02-18T16:02:36.315Z,21.47
2018-02-18T16:05:08.208Z,27.60
2018-02-18T16:07:40.080Z,25.07
2018-02-18T16:10:12.019Z,19.87
2018-02-18T16:12:44.655Z,30.57
2018-02-18T16:15:16.570Z,29.10
2018-02-18T16:17:48.448Z,25.83
2018-02-18T16:20:20.336Z,26.13
2018-02-18T16:22:52.207Z,24.67
2018-02-18T16:25:24.093Z,24.30
2018-02-18T16:27:58.012Z,26.50
2018-02-18T16:30:29.907Z,24.80
2018-02-18T16:33:01.776Z,28.73
2018-02-18T16:35:33.683Z,29.43
2018-02-18T16:38:06.316Z,33.37
2018-02-18T16:40:38.195Z,27.60
2018-02-18T16:43:10.846Z,28.70
2018-02-18T16:45:42.728Z,34.90
2018-02-18T16:48:15.299Z,26.73
2018-02-18T16:50:47.200Z,31.23
2018-02-18T16:53:19.840Z,29.03
2018-02-18T16:55:51.732Z,34.20
2018-02-18T16:58:24.372Z,30.70
2018-02-18T17:00:56.486Z,31.10
2018-02-18T17:03:28.602Z,35.43
2018-02-18T17:06:00.530Z,32.93
2018-02-18T17:08:32.681Z,37.63
2018-02-18T17:11:04.579Z,27.67
2018-02-18T17:13:36.456Z,36.57
2018-02-18T17:16:08.336Z,33.40
2018-02-18T17:18:40.975Z,31.20
2018-02-18T17:21:12.935Z,28.40
2018-02-18T17:23:44.807Z,35.63
2018-02-18T17:26:17.484Z,28.20
2018-02-18T17:28:49.444Z,28.37
2018-02-18T17:31:21.332Z,28.30
2018-02-18T17:33:53.200Z,31.53
2018-02-18T17:36:25.852Z,29.40
2018-02-18T17:38:57.739Z,30.30
2018-02-18T17:41:30.639Z,32.60
2018-02-18T17:44:02.831Z,33.93
2018-02-18T17:46:34.715Z,31.70
2018-02-18T17:49:06.616Z,31.70
2018-02-18T17:51:39.285Z,33.27
2018-02-18T17:54:11.151Z,33.67
2018-02-18T17:56:43.334Z,35.83
2018-02-18T17:59:15.204Z,31.60
2018-02-18T18:01:47.094Z,35.87
2018-02-18T18:04:18.974Z,37.87
2018-02-18T18:06:50.851Z,34.97
2018-02-18T18:09:23.499Z,36.63
2018-02-18T18:11:55.382Z,37.37
2018-02-18T18:14:27.264Z,36.60
2018-02-18T18:16:59.167Z,33.53
2018-02-18T18:19:31.056Z,38.67
2018-02-18T18:22:03.000Z,34.37
2018-02-18T18:24:34.887Z,36.43
2018-02-18T18:27:06.771Z,42.23
2018-02-18T18:29:38.647Z,30.30
2018-02-18T18:32:10.538Z,35.27
2018-02-18T18:34:43.534Z,39.03
2018-02-18T18:37:15.444Z,40.07
2018-02-18T18:39:47.443Z,33.80
2018-02-18T18:42:19.571Z,36.77
2018-02-18T18:44:51.440Z,35.30
2018-02-18T18:47:24.187Z,33.93
2018-02-18T18:49:56.835Z,34.93
2018-02-18T18:52:28.775Z,37.03
2018-02-18T18:55:01.378Z,38.50
2018-02-18T18:57:33.314Z,36.67
2018-02-18T19:00:05.200Z,39.50
2018-02-18T19:02:37.117Z,38.13
2018-02-18T19:05:08.995Z,38.37
2018-02-18T19:07:40.886Z,39.27
2018-02-18T19:10:12.782Z,37.57
2018-02-18T19:12:44.955Z,37.20
2018-02-18T19:15:17.155Z,37.67
2018-02-18T19:17:49.043Z,41.63
2018-02-18T19:20:21.020Z,39.80
2018-02-18T19:22:53.701Z,42.83
2018-02-18T19:25:25.695Z,34.70
2018-02-18T19:27:57.600Z,35.27
2018-02-18T19:30:29.477Z,42.60
2018-02-18T19:33:01.679Z,40.43
2018-02-18T19:35:33.560Z,38.63
2018-02-18T19:38:05.442Z,38.50
2018-02-18T19:40:37.374Z,39.83
2018-02-18T19:43:09.255Z,36.90
2018-02-18T19:45:41.135Z,35.60
2018-02-18T19:48:13.016Z,40.63
2018-02-18T19:50:45.011Z,39.03
2018-02-18T19:53:16.906Z,36.30
2018-02-18T19:55:48.807Z,32.43
2018-02-18T19:58:21.503Z,35.47
2018-02-18T20:00:53.377Z,39.83
2018-02-18T20:03:25.268Z,39.33
2018-02-18T20:05:57.138Z,41.53
2018-02-18T20:08:29.027Z,37.73
2018-02-18T20:11:01.724Z,39.83
2018-02-18T20:13:33.891Z,36.23
2018-02-18T20:16:06.062Z,44.33
2018-02-18T20:18:38.012Z,35.97
2018-02-18T20:21:09.915Z,43.70
2018-02-18T20:23:41.805Z,37.57
2018-02-18T20:26:13.689Z,44.10
